createdAt,value
2023-05-12T00:01:46.848Z,57.51
2023-05-12T00:04:14.150Z,57.95
2023-05-12T00:06:41.404Z,57.88
2023-05-12T00:09:08.475Z,57.89
2023-05-12T00:11:37.967Z,57.85
2023-05-12T00:14:05.118Z,58.35
2023-05-12T00:16:32.523Z,58.05
2023-05-12T00:18:59.631Z,58.13
2023-05-12T00:21:26.752Z,58.36
2023-05-12T00:23:53.867Z,58.30
2023-05-12T00:26:21.144Z,58.40
2023-05-12T00:28:48.848Z,57.77
2023-05-12T00:31:16.067Z,57.98
2023-05-12T00:33:43.253Z,57.54
2023-05-12T00:36:10.244Z,57.72
2023-05-12T00:38:37.562Z,57.69
2023-05-12T00:41:04.822Z,58.05
2023-05-12T00:43:32.132Z,57.61
2023-05-12T00:46:00.594Z,58.07
2023-05-12T00:48:27.954Z,57.79
2023-05-12T00:50:56.855Z,57.59
2023-05-12T00:53:25.775Z,58.03
2023-05-12T00:55:55.757Z,57.80
2023-05-12T00:58:23.043Z,57.69
2023-05-12T01:00:50.538Z,57.62
2023-05-12T01:03:19.187Z,58.09
2023-05-12T01:05:51.234Z,57.86
2023-05-12T01:08:20.365Z,57.94
2023-05-12T01:10:48.730Z,57.77
2023-05-12T01:13:17.723Z,57.97
2023-05-12T01:15:48.106Z,57.84
2023-05-12T01:18:16.901Z,57.94
2023-05-12T01:20:44.805Z,57.78
2023-05-12T01:23:14.163Z,57.71
2023-05-12T01:25:42.130Z,57.85
2023-05-12T01:28:10.542Z,57.53
2023-05-12T01:30:43.330Z,57.65
2023-05-12T01:33:12.650Z,57.46
2023-05-12T01:35:39.944Z,57.57
2023-05-12T01:38:06.988Z,57.63
2023-05-12T01:40:39.242Z,57.50
2023-05-12T01:43:06.482Z,57.80
2023-05-12T01:45:33.796Z,57.76
2023-05-12T01:48:01.301Z,57.78
2023-05-12T01:50:28.834Z,57.90
2023-05-12T01:52:56.241Z,57.49
2023-05-12T01:55:23.390Z,57.31
2023-05-12T01:57:54.170Z,57.25
2023-05-12T02:00:21.870Z,57.60
2023-05-12T02:02:51.828Z,57.22
2023-05-12T02:05:19.089Z,57.02
2023-05-12T02:07:49.507Z,57.22
2023-05-12T02:10:18.378Z,57.28
2023-05-12T02:12:49.146Z,57.39
2023-05-12T02:15:16.726Z,56.98
2023-05-12T02:17:46.858Z,56.87
2023-05-12T02:20:16.253Z,56.35
2023-05-12T02:22:43.721Z,56.55
2023-05-12T02:25:11.171Z,56.24
2023-05-12T02:27:38.327Z,56.36
2023-05-12T02:30:06.897Z,56.12
2023-05-12T02:32:35.355Z,55.80
2023-05-12T02:35:02.601Z,55.59
2023-05-12T02:37:31.838Z,55.84
2023-05-12T02:39:59.316Z,55.64
2023-05-12T02:42:28.992Z,55.28
2023-05-12T02:44:56.447Z,55.30
2023-05-12T02:47:23.809Z,55.31
2023-05-12T02:49:51.304Z,55.33
2023-05-12T02:52:18.535Z,55.41
2023-05-12T02:54:45.628Z,54.93
2023-05-12T02:57:12.782Z,54.67
2023-05-12T02:59:39.920Z,54.86
2023-05-12T03:02:07.872Z,54.47
2023-05-12T03:04:35.346Z,54.13
2023-05-12T03:07:03.044Z,54.49
2023-05-12T03:09:30.443Z,54.50
2023-05-12T03:11:57.401Z,53.92
2023-05-12T03:14:26.349Z,54.60
2023-05-12T03:16:53.538Z,54.38
2023-05-12T03:19:20.776Z,53.79
2023-05-12T03:21:47.862Z,54.61
2023-05-12T03:24:15.132Z,53.98
2023-05-12T03:26:42.579Z,53.84
2023-05-12T03:29:09.677Z,53.44
2023-05-12T03:31:37.112Z,53.38
2023-05-12T03:34:04.937Z,53.47
2023-05-12T03:36:32.102Z,53.31
2023-05-12T03:38:59.221Z,53.27
2023-05-12T03:41:26.298Z,53.11
2023-05-12T03:43:53.307Z,52.48
2023-05-12T03:46:21.301Z,52.75
2023-05-12T03:48:48.385Z,52.93
2023-05-12T03:51:15.548Z,52.58
2023-05-12T03:53:45.498Z,52.13
2023-05-12T03:56:15.792Z,52.18
2023-05-12T03:58:43.927Z,51.85
2023-05-12T04:01:11.038Z,51.68
2023-05-12T04:03:38.122Z,52.13
2023-05-12T04:06:05.389Z,52.02
2023-05-12T04:08:32.505Z,51.72
2023-05-12T04:11:01.876Z,51.33
2023-05-12T04:13:32.012Z,51.23
2023-05-12T04:15:59.388Z,51.20
2023-05-12T04:18:28.065Z,51.34
2023-05-12T04:20:56.022Z,51.19
2023-05-12T04:23:23.503Z,51.15
2023-05-12T04:25:50.511Z,51.00
2023-05-12T04:28:17.996Z,50.82
2023-05-12T04:30:45.889Z,50.51
2023-05-12T04:33:12.978Z,50.39
2023-05-12T04:35:40.878Z,50.40
2023-05-12T04:38:10.031Z,50.13
2023-05-12T04:40:37.995Z,49.93
2023-05-12T04:43:05.164Z,49.84
2023-05-12T04:45:32.685Z,49.70
2023-05-12T04:48:00.176Z,49.37
2023-05-12T04:50:27.341Z,49.36
2023-05-12T04:52:54.507Z,49.17
2023-05-12T04:55:22.033Z,48.98
2023-05-12T04:57:49.971Z,48.75
2023-05-12T05:00:17.142Z,48.63
2023-05-12T05:02:45.640Z,48.69
2023-05-12T05:05:12.905Z,48.66
2023-05-12T05:07:40.608Z,48.42
2023-05-12T05:10:08.546Z,48.15
2023-05-12T05:12:35.954Z,48.33
2023-05-12T05:15:03.154Z,47.95
2023-05-12T05:17:33.947Z,47.74
2023-05-12T05:20:01.252Z,47.70
2023-05-12T05:22:33.858Z,47.37
2023-05-12T05:25:01.261Z,47.41
2023-05-12T05:27:32.217Z,47.40
2023-05-12T05:29:59.460Z,46.81
2023-05-12T05:32:27.022Z,46.52
2023-05-12T05:34:54.168Z,46.40
2023-05-12T05:37:21.377Z,46.58
2023-05-12T05:39:48.570Z,46.04
2023-05-12T05:42:15.921Z,45.99
2023-05-12T05:44:43.706Z,46.03
2023-05-12T05:47:11.457Z,45.64
2023-05-12T05:49:38.781Z,45.90
2023-05-12T05:52:06.913Z,45.66
2023-05-12T05:54:33.970Z,45.53
2023-05-12T05:57:02.322Z,45.37
2023-05-12T05:59:30.418Z,45.36
2023-05-12T06:01:57.735Z,45.03
2023-05-12T06:04:25.080Z,45.12
2023-05-12T06:06:52.141Z,44.67
2023-05-12T06:09:21.224Z,44.59
2023-05-12T06:11:49.290Z,44.99
2023-05-12T06:14:17.336Z,44.49
2023-05-12T06:16:44.575Z,44.24
2023-05-12T06:19:12.447Z,43.91
2023-05-12T06:21:41.041Z,44.12
2023-05-12T06:24:08.269Z,43.82
2023-05-12T06:26:36.599Z,43.80
2023-05-12T06:29:06.874Z,43.16
2023-05-12T06:31:34.012Z,43.39
2023-05-12T06:34:01.093Z,42.80
2023-05-12T06:36:28.967Z,42.75
2023-05-12T06:38:56.921Z,42.24
2023-05-12T06:41:25.244Z,41.67
2023-05-12T06:43:52.566Z,41.78
2023-05-12T06:46:27.657Z,41.44
2023-05-12T06:48:57.984Z,41.05
2023-05-12T06:51:25.148Z,40.65
2023-05-12T06:53:52.382Z,40.44
2023-05-12T06:56:19.435Z,40.02
2023-05-12T06:58:48.141Z,39.68
2023-05-12T07:01:15.739Z,38.88
2023-05-12T07:03:42.853Z,38.15
2023-05-12T07:06:10.258Z,38.19
2023-05-12T07:08:37.405Z,38.25
2023-05-12T07:11:04.475Z,37.63
2023-05-12T07:13:31.502Z,37.36
2023-05-12T07:15:58.629Z,37.45
2023-05-12T07:18:26.003Z,37.47
2023-05-12T07:20:53.474Z,37.52
2023-05-12T07:23:20.793Z,37.24
2023-05-12T07:25:48.029Z,37.02
2023-05-12T07:28:15.495Z,36.46
2023-05-12T07:30:43.114Z,36.39
2023-05-12T07:33:10.342Z,36.33
2023-05-12T07:35:37.493Z,36.20
2023-05-12T07:38:04.665Z,36.28
2023-05-12T07:40:31.830Z,35.89
2023-05-12T07:42:58.908Z,35.76
2023-05-12T07:45:26.124Z,35.46
2023-05-12T07:47:53.442Z,35.20
2023-05-12T07:50:21.554Z,35.09
2023-05-12T07:52:50.542Z,34.90
2023-05-12T07:55:18.880Z,34.78
2023-05-12T07:57:46.374Z,34.25
2023-05-12T08:00:14.496Z,34.16
2023-05-12T08:02:42.938Z,33.91
2023-05-12T08:05:10.828Z,33.50
2023-05-12T08:07:41.101Z,33.30
2023-05-12T08:10:09.408Z,32.96
2023-05-12T08:12:36.368Z,32.85
2023-05-12T08:15:03.693Z,32.61
2023-05-12T08:17:33.772Z,32.20
2023-05-12T08:20:04.509Z,31.85
2023-05-12T08:22:36.525Z,31.56
2023-05-12T08:25:03.825Z,31.02
2023-05-12T08:27:33.810Z,30.80
2023-05-12T08:30:01.003Z,30.46
2023-05-12T08:32:28.435Z,30.05
2023-05-12T08:34:55.425Z,29.88
2023-05-12T08:37:22.676Z,29.68
2023-05-12T08:39:49.908Z,29.40
2023-05-12T08:42:44.561Z,27.85
2023-05-12T08:45:14.580Z,29.12
2023-05-12T08:47:42.979Z,28.94
2023-05-12T08:50:11.766Z,28.69
2023-05-12T08:52:39.578Z,28.57
2023-05-12T08:55:09.350Z,28.33
2023-05-12T08:57:39.527Z,28.17
2023-05-12T09:00:09.036Z,28.43
2023-05-12T09:02:51.937Z,28.17
2023-05-12T09:05:22.039Z,28.18
2023-05-12T09:07:50.548Z,28.18
2023-05-12T09:10:33.750Z,28.06
2023-05-12T09:13:26.549Z,27.02
2023-05-12T09:15:56.714Z,27.76
2023-05-12T09:18:23.906Z,27.56
2023-05-12T09:20:51.058Z,27.51
2023-05-12T09:23:20.367Z,27.29
2023-05-12T09:25:48.353Z,27.30
2023-05-12T09:28:16.029Z,27.24
2023-05-12T09:30:43.284Z,27.22
2023-05-12T09:33:12.462Z,27.01
2023-05-12T09:35:40.424Z,26.83
2023-05-12T09:38:09.227Z,26.55
2023-05-12T09:40:36.829Z,26.27
2023-05-12T09:43:06.499Z,25.96
2023-05-12T09:45:39.001Z,25.89
2023-05-12T09:48:11.096Z,25.32
2023-05-12T09:50:50.588Z,24.80
2023-05-12T09:53:19.422Z,26.08
2023-05-12T09:55:48.008Z,26.11
2023-05-12T09:58:17.393Z,25.85
2023-05-12T10:03:23.954Z,26.29
2023-05-12T10:05:57.743Z,25.76
2023-05-12T10:08:30.256Z,25.80
2023-05-12T10:11:00.253Z,25.65
2023-05-12T10:13:28.192Z,25.73
2023-05-12T10:15:59.385Z,24.88
2023-05-12T10:18:26.814Z,25.37
2023-05-12T10:20:54.306Z,25.18
2023-05-12T10:23:22.815Z,25.20
2023-05-12T10:25:50.190Z,25.14
2023-05-12T10:28:17.551Z,24.94
2023-05-12T10:30:45.652Z,24.82
2023-05-12T10:33:12.762Z,24.87
2023-05-12T10:35:40.359Z,24.98
2023-05-12T10:38:09.732Z,24.99
2023-05-12T10:40:37.002Z,25.25
2023-05-12T10:43:05.029Z,25.17
2023-05-12T10:45:37.553Z,24.86
2023-05-12T10:48:07.185Z,25.33
2023-05-12T10:50:34.365Z,25.14
2023-05-12T10:53:01.660Z,25.14
2023-05-12T10:55:43.911Z,24.72
2023-05-12T10:58:13.328Z,25.30
2023-05-12T11:00:52.885Z,24.76
2023-05-12T11:03:25.671Z,25.11
2023-05-12T11:06:05.200Z,24.93
2023-05-12T11:08:35.721Z,25.51
2023-05-12T11:11:03.381Z,25.37
2023-05-12T11:13:30.655Z,25.37
2023-05-12T11:15:58.365Z,25.21
2023-05-12T11:18:25.565Z,25.07
2023-05-12T11:20:52.650Z,24.95
2023-05-12T11:23:28.994Z,24.46
2023-05-12T11:25:57.277Z,24.82
2023-05-12T11:28:24.677Z,24.82
2023-05-12T11:30:54.999Z,24.84
2023-05-12T11:33:25.633Z,24.59
2023-05-12T11:35:52.808Z,24.28
2023-05-12T11:38:20.119Z,24.18
2023-05-12T11:40:47.424Z,23.88
2023-05-12T11:43:15.410Z,23.62
2023-05-12T11:45:42.438Z,23.31
2023-05-12T11:48:15.396Z,23.12
2023-05-12T11:50:46.796Z,23.01
2023-05-12T11:53:19.720Z,22.19
2023-05-12T11:55:52.574Z,22.28
2023-05-12T11:58:29.990Z,21.96
2023-05-12T12:00:57.874Z,22.29
2023-05-12T12:03:25.685Z,21.53
2023-05-12T12:06:01.109Z,20.13
2023-05-12T12:08:28.944Z,21.26
2023-05-12T12:10:56.094Z,21.28
2023-05-12T12:13:24.844Z,20.73
2023-05-12T12:15:52.783Z,20.43
2023-05-12T12:18:20.027Z,20.05
2023-05-12T12:20:47.691Z,19.67
2023-05-12T12:23:14.840Z,18.92
2023-05-12T12:25:41.873Z,18.88
2023-05-12T12:28:09.225Z,18.83
2023-05-12T12:30:36.317Z,19.41
2023-05-12T12:33:03.346Z,19.63
2023-05-12T12:35:30.440Z,19.68
2023-05-12T12:37:58.830Z,20.00
2023-05-12T12:40:26.031Z,20.26
2023-05-12T12:42:53.500Z,19.90
2023-05-12T12:45:20.800Z,19.82
2023-05-12T12:47:48.178Z,19.42
2023-05-12T12:50:15.440Z,19.23
2023-05-12T12:52:43.269Z,19.11
2023-05-12T12:55:10.431Z,18.77
2023-05-12T12:57:37.853Z,18.84
2023-05-12T13:00:05.816Z,18.61
2023-05-12T13:02:38.918Z,18.79
2023-05-12T13:05:07.280Z,18.86
2023-05-12T13:07:34.804Z,19.27
2023-05-12T13:10:02.992Z,19.68
2023-05-12T13:12:33.188Z,19.58
2023-05-12T13:15:00.948Z,19.83
2023-05-12T13:17:28.743Z,19.76
2023-05-12T13:19:55.887Z,19.99
2023-05-12T13:22:23.051Z,19.90
2023-05-12T13:24:50.109Z,19.87
2023-05-12T13:27:17.256Z,19.96
2023-05-12T13:29:47.451Z,20.00
2023-05-12T13:32:17.825Z,19.64
2023-05-12T13:34:44.909Z,19.35
2023-05-12T13:37:12.361Z,19.13
2023-05-12T13:39:39.622Z,19.05
2023-05-12T13:42:10.181Z,18.75
2023-05-12T13:45:09.348Z,18.86
2023-05-12T13:47:36.727Z,19.03
2023-05-12T13:50:03.906Z,19.27
2023-05-12T13:52:31.506Z,19.08
2023-05-12T13:54:58.732Z,19.18
2023-05-12T13:57:26.014Z,19.35
2023-05-12T13:59:54.994Z,19.14
2023-05-12T14:02:22.178Z,19.71
2023-05-12T14:04:49.534Z,19.34
2023-05-12T14:07:17.196Z,18.75
2023-05-12T14:09:44.255Z,18.43
2023-05-12T14:12:11.510Z,18.32
2023-05-12T14:14:38.742Z,18.02
2023-05-12T14:17:05.972Z,17.85
2023-05-12T14:19:33.137Z,17.90
2023-05-12T14:22:00.901Z,17.96
2023-05-12T14:24:28.981Z,18.00
2023-05-12T14:26:56.263Z,18.01
2023-05-12T14:29:24.631Z,17.96
2023-05-12T14:31:51.931Z,18.36
2023-05-12T14:34:23.574Z,18.56
2023-05-12T14:36:51.189Z,19.11
2023-05-12T14:39:18.370Z,19.40
2023-05-12T14:41:45.597Z,19.47
2023-05-12T14:44:12.741Z,19.52
2023-05-12T14:46:39.880Z,19.03
2023-05-12T14:49:11.178Z,19.32
2023-05-12T14:51:38.508Z,19.60
2023-05-12T14:54:15.057Z,19.77
2023-05-12T14:56:50.309Z,19.68
2023-05-12T14:59:17.952Z,19.56
2023-05-12T15:01:45.311Z,19.27
2023-05-12T15:04:13.590Z,19.01
2023-05-12T15:06:44.788Z,18.88
2023-05-12T15:09:12.424Z,18.43
2023-05-12T15:11:39.909Z,18.34
2023-05-12T15:14:07.782Z,17.90
2023-05-12T15:16:38.099Z,17.38
2023-05-12T15:19:05.483Z,17.60
2023-05-12T15:21:36.750Z,17.00
2023-05-12T15:24:04.625Z,17.33
2023-05-12T15:26:34.226Z,16.97
2023-05-12T15:29:02.740Z,17.03
2023-05-12T15:31:30.241Z,17.11
2023-05-12T15:33:58.138Z,16.48
2023-05-12T15:36:25.221Z,16.83
2023-05-12T15:38:52.552Z,16.68
2023-05-12T15:41:19.769Z,16.08
2023-05-12T15:43:46.833Z,16.10
2023-05-12T15:46:14.043Z,16.28
2023-05-12T15:48:41.180Z,16.47
2023-05-12T15:51:08.150Z,16.26
2023-05-12T15:53:35.318Z,16.86
2023-05-12T15:56:03.845Z,17.29
2023-05-12T15:58:31.612Z,17.75
2023-05-12T16:00:59.543Z,17.85
2023-05-12T16:03:27.381Z,18.09
2023-05-12T16:05:55.321Z,18.23
2023-05-12T16:08:24.192Z,18.80
2023-05-12T16:10:51.386Z,18.71
2023-05-12T16:13:18.519Z,18.27
2023-05-12T16:15:45.642Z,18.73
2023-05-12T16:18:12.759Z,18.76
2023-05-12T16:20:41.779Z,18.68
2023-05-12T16:23:08.933Z,19.07
2023-05-12T16:25:36.101Z,19.28
2023-05-12T16:28:03.761Z,19.48
2023-05-12T16:30:30.950Z,19.63
2023-05-12T16:32:57.975Z,19.78
2023-05-12T16:35:25.178Z,19.92
2023-05-12T16:37:52.842Z,19.93
2023-05-12T16:40:20.441Z,20.22
2023-05-12T16:42:48.005Z,20.45
2023-05-12T16:45:15.258Z,20.71
2023-05-12T16:47:42.601Z,20.81
2023-05-12T16:50:10.383Z,21.07
2023-05-12T16:52:37.535Z,21.26
2023-05-12T16:55:05.024Z,21.22
2023-05-12T16:57:32.622Z,21.45
2023-05-12T17:00:00.931Z,21.67
2023-05-12T17:02:28.070Z,21.59
2023-05-12T17:04:55.279Z,22.05
2023-05-12T17:07:23.378Z,22.23
2023-05-12T17:09:50.677Z,22.43
2023-05-12T17:12:18.169Z,22.56
2023-05-12T17:14:50.115Z,22.62
2023-05-12T17:17:20.404Z,22.72
2023-05-12T17:19:47.453Z,22.93
2023-05-12T17:22:14.697Z,23.00
2023-05-12T17:24:41.858Z,23.16
2023-05-12T17:27:09.020Z,23.40
2023-05-12T17:29:36.037Z,23.55
2023-05-12T17:32:03.342Z,23.67
2023-05-12T17:34:30.335Z,23.85
2023-05-12T17:36:57.975Z,23.90
2023-05-12T17:39:25.059Z,24.07
2023-05-12T17:41:52.130Z,24.27
2023-05-12T17:44:19.236Z,24.38
2023-05-12T17:46:46.291Z,24.44
2023-05-12T17:49:13.315Z,24.52
2023-05-12T17:51:40.436Z,24.58
2023-05-12T17:54:08.115Z,24.99
2023-05-12T17:56:35.186Z,24.91
2023-05-12T17:59:03.477Z,24.83
2023-05-12T18:01:30.835Z,24.87
2023-05-12T18:03:58.274Z,24.76
2023-05-12T18:06:25.313Z,24.84
2023-05-12T18:08:52.352Z,24.93
2023-05-12T18:11:19.383Z,24.60
2023-05-12T18:13:46.547Z,24.76
2023-05-12T18:16:25.207Z,24.58
2023-05-12T18:18:55.772Z,24.58
2023-05-12T18:21:23.011Z,24.59
2023-05-12T18:23:50.213Z,24.40
2023-05-12T18:26:17.400Z,24.51
2023-05-12T18:28:44.457Z,24.80
2023-05-12T18:33:41.557Z,24.90
2023-05-12T18:36:09.059Z,25.08
2023-05-12T18:38:36.049Z,25.17
2023-05-12T18:41:03.486Z,25.40
2023-05-12T18:43:30.592Z,25.41
2023-05-12T18:45:57.668Z,25.49
2023-05-12T18:48:24.836Z,25.82
2023-05-12T18:50:51.922Z,26.15
2023-05-12T18:53:18.969Z,25.99
2023-05-12T18:55:46.426Z,26.20
2023-05-12T18:58:13.684Z,26.55
2023-05-12T19:00:40.861Z,26.30
2023-05-12T19:03:08.236Z,26.59
2023-05-12T19:05:35.837Z,26.92
2023-05-12T19:08:05.985Z,26.90
2023-05-12T19:10:33.097Z,27.21
2023-05-12T19:13:00.159Z,27.48
2023-05-12T19:15:27.145Z,27.57
2023-05-12T19:17:54.356Z,27.44
2023-05-12T19:20:21.425Z,27.63
2023-05-12T19:22:51.228Z,28.43
2023-05-12T19:25:18.613Z,28.05
2023-05-12T19:27:46.251Z,28.38
2023-05-12T19:30:14.272Z,28.33
2023-05-12T19:32:42.764Z,28.68
2023-05-12T19:35:13.169Z,28.46
2023-05-12T19:37:41.676Z,28.63
2023-05-12T19:40:09.169Z,28.80
2023-05-12T19:42:38.032Z,28.50
2023-05-12T19:45:06.098Z,28.59
2023-05-12T19:47:35.306Z,28.84
2023-05-12T19:50:02.312Z,28.74
2023-05-12T19:52:31.795Z,28.60
2023-05-12T19:54:58.941Z,28.65
2023-05-12T19:57:26.585Z,28.88
2023-05-12T19:59:53.539Z,29.28
2023-05-12T20:02:20.886Z,29.38
2023-05-12T20:04:48.293Z,29.49
2023-05-12T20:07:16.437Z,29.48
2023-05-12T20:09:43.422Z,29.87
2023-05-12T20:12:10.451Z,29.96
2023-05-12T20:14:38.530Z,30.10
2023-05-12T20:17:07.656Z,30.30
2023-05-12T20:19:35.753Z,30.17
2023-05-12T20:22:02.933Z,30.10
2023-05-12T20:24:30.105Z,30.10
2023-05-12T20:26:57.064Z,30.20
2023-05-12T20:29:26.007Z,30.54
2023-05-12T20:31:53.255Z,30.57
2023-05-12T20:34:45.893Z,30.94
2023-05-12T20:37:16.017Z,30.98
2023-05-12T20:39:43.075Z,30.84
2023-05-12T20:42:10.270Z,30.63
2023-05-12T20:44:37.437Z,30.62
2023-05-12T20:47:04.736Z,30.71
2023-05-12T20:49:31.811Z,30.69
2023-05-12T20:51:59.248Z,30.85
2023-05-12T20:54:26.464Z,30.66
2023-05-12T20:56:53.516Z,31.04
2023-05-12T20:59:24.578Z,30.80
2023-05-12T21:01:51.646Z,30.97
2023-05-12T21:04:18.924Z,30.98
2023-05-12T21:06:46.936Z,30.86
2023-05-12T21:09:14.141Z,31.02
2023-05-12T21:11:41.670Z,31.18
2023-05-12T21:14:08.833Z,31.02
2023-05-12T21:16:36.042Z,31.08
2023-05-12T21:19:03.229Z,31.07
2023-05-12T21:21:30.206Z,31.06
2023-05-12T21:23:57.226Z,31.23
2023-05-12T21:26:26.171Z,31.37
2023-05-12T21:28:53.221Z,31.36
2023-05-12T21:31:20.264Z,32.07
2023-05-12T21:33:48.182Z,31.57
2023-05-12T21:36:15.169Z,31.67
2023-05-12T21:38:42.344Z,31.61
2023-05-12T21:41:09.360Z,31.68
2023-05-12T21:43:36.445Z,31.61
2023-05-12T21:46:04.709Z,31.51
2023-05-12T21:48:32.278Z,31.50
2023-05-12T21:51:00.881Z,31.62
2023-05-12T21:53:29.209Z,31.59
2023-05-12T21:55:56.379Z,31.78
2023-05-12T21:58:23.892Z,31.58
2023-05-12T22:00:51.815Z,31.75
2023-05-12T22:03:20.579Z,31.86
2023-05-12T22:05:47.891Z,31.83
2023-05-12T22:08:14.937Z,31.81
2023-05-12T22:10:42.635Z,31.78
2023-05-12T22:13:09.869Z,32.18
2023-05-12T22:15:36.970Z,32.28
2023-05-12T22:18:04.117Z,32.58
2023-05-12T22:20:31.472Z,32.53
2023-05-12T22:22:58.693Z,32.90
2023-05-12T22:25:26.126Z,32.81
2023-05-12T22:27:53.258Z,33.01
2023-05-12T22:30:20.650Z,33.06
2023-05-12T22:32:48.005Z,33.25
2023-05-12T22:35:15.354Z,33.52
2023-05-12T22:37:42.406Z,33.62
2023-05-12T22:40:09.930Z,33.92
2023-05-12T22:42:36.884Z,34.04
2023-05-12T22:45:04.939Z,34.10
2023-05-12T22:47:33.043Z,34.35
2023-05-12T22:50:00.938Z,34.44
2023-05-12T22:52:29.356Z,34.55
2023-05-12T22:54:56.531Z,34.59
2023-05-12T22:57:23.629Z,34.89
2023-05-12T22:59:51.251Z,35.21
2023-05-12T23:02:18.387Z,35.51
2023-05-12T23:04:45.687Z,35.50
2023-05-12T23:07:12.897Z,35.42
2023-05-12T23:09:40.372Z,35.69
2023-05-12T23:12:07.775Z,35.55
2023-05-12T23:14:34.805Z,35.82
2023-05-12T23:17:02.122Z,36.21
2023-05-12T23:19:29.307Z,36.21
2023-05-12T23:21:56.283Z,36.14
2023-05-12T23:24:23.398Z,36.35
2023-05-12T23:26:51.052Z,36.46
2023-05-12T23:29:18.190Z,36.91
2023-05-12T23:31:45.305Z,37.01
2023-05-12T23:34:12.536Z,37.12
2023-05-12T23:36:39.578Z,36.99
2023-05-12T23:39:06.652Z,37.70
2023-05-12T23:41:36.345Z,37.73
2023-05-12T23:44:03.900Z,37.25
2023-05-12T23:46:31.003Z,37.60
2023-05-12T23:48:58.120Z,37.77
2023-05-12T23:51:26.028Z,37.93
2023-05-12T23:53:53.124Z,37.65
2023-05-12T23:56:20.174Z,38.44
2023-05-12T23:58:47.735Z,37.83
